»·PEaware :: N132KT KIML-KGNB

N132KT :: KIML-KGNB

FLIGHT INFORMATION

Flight Status: Arrived
Operator: Privately registered:
United States
More flights under this callsign
Pilot: Keith S. (1)
Aircraft: BEECH AIRCRAFT BARON
(BE58)
More flights by this aircraft type
Origin: KIML Imperial Mun
United States
Destination: KGNB Granby-Grand Co
United States
More flights between these airports :: More routes between these airports
Route:
File this flight plan on PilotEdge
Remarks:
Altitude:
(Current/Filed)
10,500ft
Speed:
(Current/Filed)
170kts
Departed: 16-Jul-19 09:56 AM
Arrived: 16-Jul-19 11:12 AM
Distance/Time
Traveled:
198nm/1:15
Distance/Time
To Go:
Arrived

Flight Plot

Page will automatically refresh every two minutes.

Flight plan parsing failed; only flown route is shown


Map Options




Map Legend


Flown Route
Filed Route
Departure Airport
Arrival Airport
Navaid (VOR, NDB)
Fix

Horizontal Profiles

Position Reports

Time Latitude Longitude Heading Altitude Ground
Speed
16-Jul-19 09:51 40.512385 -101.626468 324 3276ft 0kts
16-Jul-19 09:52 40.512385 -101.626468 324 3276ft 0kts
16-Jul-19 09:53 40.512762 -101.626693 352 3276ft 10kts
16-Jul-19 09:54 40.514622 -101.626183 58 3276ft 0kts
16-Jul-19 09:55 40.502090 -101.613123 142 3362ft 122kts
16-Jul-19 09:56 40.475621 -101.619566 271 4141ft 157kts
16-Jul-19 09:57 40.474853 -101.674040 258 5032ft 147kts
16-Jul-19 09:58 40.470648 -101.727270 259 5867ft 146kts
16-Jul-19 09:59 40.466732 -101.780266 259 6674ft 144kts
16-Jul-19 10:00 40.462895 -101.832569 260 7440ft 143kts
16-Jul-19 10:01 40.458596 -101.884423 242 8173ft 140kts
16-Jul-19 10:02 40.449796 -101.933645 259 8864ft 140kts
16-Jul-19 10:04 40.444512 -101.984070 261 9481ft 138kts
16-Jul-19 10:05 40.439117 -102.034122 261 10057ft 138kts
16-Jul-19 10:06 40.433574 -102.084321 262 10533ft 145kts
16-Jul-19 10:07 40.427233 -102.141554 262 10511ft 166kts
16-Jul-19 10:08 40.420366 -102.202811 262 10508ft 171kts
16-Jul-19 10:09 40.413347 -102.265072 262 10507ft 172kts
16-Jul-19 10:10 40.406249 -102.327724 262 10507ft 173kts
16-Jul-19 10:11 40.399134 -102.390214 262 10507ft 173kts
16-Jul-19 10:12 40.391974 -102.452794 262 10507ft 173kts
16-Jul-19 10:13 40.384771 -102.515446 262 10507ft 173kts
16-Jul-19 10:14 40.377548 -102.577969 262 10506ft 173kts
16-Jul-19 10:15 40.370289 -102.640497 262 10507ft 173kts
16-Jul-19 10:16 40.362975 -102.703175 261 10508ft 173kts
16-Jul-19 10:17 40.355646 -102.765691 261 10513ft 173kts
16-Jul-19 10:18 40.348295 -102.828094 261 10523ft 173kts
16-Jul-19 10:19 40.340898 -102.890609 261 10534ft 173kts
16-Jul-19 10:20 40.333500 -102.952807 261 10546ft 172kts
16-Jul-19 10:20 40.327307 -103.004821 260 10551ft 173kts
16-Jul-19 10:22 40.318555 -103.077812 259 10553ft 173kts
16-Jul-19 10:23 40.311027 -103.140196 259 10553ft 174kts
16-Jul-19 10:23 40.304627 -103.192979 258 10553ft 175kts
16-Jul-19 10:25 40.295572 -103.267282 258 10553ft 177kts
16-Jul-19 10:26 40.287779 -103.330980 258 10552ft 177kts
16-Jul-19 10:26 40.281224 -103.384329 258 10553ft 177kts
16-Jul-19 10:27 40.273331 -103.448296 258 10553ft 177kts
16-Jul-19 10:29 40.264090 -103.522802 258 10553ft 177kts
16-Jul-19 10:29 40.257466 -103.575971 258 10553ft 177kts
16-Jul-19 10:30 40.249781 -103.637359 258 10971ft 158kts
16-Jul-19 10:31 40.242802 -103.692765 258 11477ft 152kts
16-Jul-19 10:32 40.235894 -103.747483 258 11911ft 152kts
16-Jul-19 10:33 40.228975 -103.802178 258 12328ft 151kts
16-Jul-19 10:34 40.221946 -103.857426 258 12563ft 161kts
16-Jul-19 10:35 40.214164 -103.918471 258 12493ft 173kts
16-Jul-19 10:36 40.206149 -103.981018 258 12498ft 174kts
16-Jul-19 10:37 40.198049 -104.043919 258 12505ft 175kts
16-Jul-19 10:38 40.189858 -104.107239 258 12513ft 175kts
16-Jul-19 10:39 40.181655 -104.170354 258 12522ft 175kts
16-Jul-19 10:40 40.173437 -104.233316 258 12516ft 176kts
16-Jul-19 10:41 40.165145 -104.296569 258 12508ft 176kts
16-Jul-19 10:42 40.156806 -104.359905 258 12499ft 176kts
16-Jul-19 10:43 40.148459 -104.423009 258 12494ft 175kts
16-Jul-19 10:44 40.140103 -104.485921 258 12495ft 175kts
16-Jul-19 10:45 40.131675 -104.549093 258 12497ft 175kts
16-Jul-19 10:46 40.123236 -104.612077 258 12481ft 176kts
16-Jul-19 10:47 40.114730 -104.675285 257 12485ft 175kts
16-Jul-19 10:48 40.106223 -104.738240 257 12497ft 175kts
16-Jul-19 10:49 40.097700 -104.801042 257 12507ft 175kts
16-Jul-19 10:50 40.089141 -104.863838 257 12516ft 175kts
16-Jul-19 10:51 40.080568 -104.926491 257 12518ft 174kts
16-Jul-19 10:52 40.072014 -104.988655 258 12514ft 172kts
16-Jul-19 10:53 40.063560 -105.049799 259 12512ft 169kts
16-Jul-19 10:54 40.055216 -105.109915 260 12510ft 166kts
16-Jul-19 10:55 40.046953 -105.169516 260 12508ft 165kts
16-Jul-19 10:56 40.038699 -105.228699 260 12504ft 165kts
16-Jul-19 10:57 40.030403 -105.287939 260 12499ft 165kts
16-Jul-19 10:58 40.022111 -105.346988 260 12493ft 165kts
16-Jul-19 10:59 40.013802 -105.405812 260 12526ft 163kts
16-Jul-19 11:00 40.002008 -105.462939 255 12582ft 162kts
16-Jul-19 11:01 39.988950 -105.519436 255 12635ft 162kts
16-Jul-19 11:02 39.975883 -105.576066 255 12732ft 159kts
16-Jul-19 11:03 39.966267 -105.629096 262 13233ft 141kts
16-Jul-19 11:04 39.969030 -105.677245 313 13459ft 155kts
16-Jul-19 11:05 39.997328 -105.724954 294 12879ft 182kts
16-Jul-19 11:06 40.023653 -105.781023 300 12693ft 174kts
16-Jul-19 11:07 40.049290 -105.833349 300 12696ft 169kts
16-Jul-19 11:08 40.078884 -105.881822 316 11231ft 166kts
16-Jul-19 11:09 40.101904 -105.926847 283 9331ft 135kts
16-Jul-19 11:10 40.090767 -105.920838 103 8207ft 100kts
16-Jul-19 11:11 40.088686 -105.913222 121 8207ft 0kts
16-Jul-19 11:12 40.088686 -105.913222 121 8207ft 0kts
16-Jul-19 11:13 40.088686 -105.913222 121 8207ft 0kts
16-Jul-19 11:14 40.088686 -105.913222 121 8207ft 0kts
16-Jul-19 11:15 40.088686 -105.913222 121 8207ft 0kts
16-Jul-19 11:16 40.088686 -105.913222 121 8207ft 0kts
16-Jul-19 11:17 40.088686 -105.913222 121 8207ft 0kts

Navigation Log

Ident Type
Flight plan parsing failed, navigation log unavailable